sensor_id;sensor_type;location;lat;lon;timestamp;temperature;humidity
4749;DHT22;2388;53.582;9.962;2023-09-19T00:01:13;17.80;99.90
4749;DHT22;2388;53.582;9.962;2023-09-19T00:03:40;17.80;99.90
4749;DHT22;2388;53.582;9.962;2023-09-19T00:06:07;17.80;99.90
4749;DHT22;2388;53.582;9.962;2023-09-19T00:08:33;17.80;99.90
4749;DHT22;2388;53.582;9.962;2023-09-19T00:10:59;17.80;99.90
4749;DHT22;2388;53.582;9.962;2023-09-19T00:13:31;17.70;99.90
4749;DHT22;2388;53.582;9.962;2023-09-19T00:15:57;17.70;99.90
4749;DHT22;2388;53.582;9.962;2023-09-19T00:18:25;17.70;99.90
4749;DHT22;2388;53.582;9.962;2023-09-19T00:20:57;17.70;99.90
4749;DHT22;2388;53.582;9.962;2023-09-19T00:23:23;17.70;99.90
4749;DHT22;2388;53.582;9.962;2023-09-19T00:25:50;17.70;99.90
4749;DHT22;2388;53.582;9.962;2023-09-19T00:28:17;17.70;99.90
4749;DHT22;2388;53.582;9.962;2023-09-19T00:30:44;17.70;99.90
4749;DHT22;2388;53.582;9.962;2023-09-19T00:33:09;17.70;99.90
4749;DHT22;2388;53.582;9.962;2023-09-19T00:35:36;17.70;99.90
4749;DHT22;2388;53.582;9.962;2023-09-19T00:38:02;17.70;99.90
4749;DHT22;2388;53.582;9.962;2023-09-19T00:40:29;17.70;99.90
4749;DHT22;2388;53.582;9.962;2023-09-19T00:42:58;17.70;99.90
4749;DHT22;2388;53.582;9.962;2023-09-19T00:45:26;17.70;99.90
4749;DHT22;2388;53.582;9.962;2023-09-19T00:47:52;17.60;99.90
4749;DHT22;2388;53.582;9.962;2023-09-19T00:50:19;17.60;99.90
4749;DHT22;2388;53.582;9.962;2023-09-19T00:52:46;17.70;99.90
4749;DHT22;2388;53.582;9.962;2023-09-19T00:55:14;17.60;99.90
4749;DHT22;2388;53.582;9.962;2023-09-19T00:57:41;17.60;99.90
4749;DHT22;2388;53.582;9.962;2023-09-19T01:00:08;17.60;99.90
4749;DHT22;2388;53.582;9.962;2023-09-19T01:02:41;17.60;99.90
4749;DHT22;2388;53.582;9.962;2023-09-19T01:05:08;17.60;99.90
4749;DHT22;2388;53.582;9.962;2023-09-19T01:07:33;17.60;99.90
4749;DHT22;2388;53.582;9.962;2023-09-19T01:10:00;17.60;99.90
4749;DHT22;2388;53.582;9.962;2023-09-19T01:12:40;17.60;99.90
4749;DHT22;2388;53.582;9.962;2023-09-19T01:24:16;17.60;99.90
4749;DHT22;2388;53.582;9.962;2023-09-19T01:27:06;17.60;99.90
4749;DHT22;2388;53.582;9.962;2023-09-19T01:29:42;17.60;99.90
4749;DHT22;2388;53.582;9.962;2023-09-19T01:32:11;17.60;99.90
4749;DHT22;2388;53.582;9.962;2023-09-19T01:37:12;17.60;99.90
4749;DHT22;2388;53.582;9.962;2023-09-19T01:39:39;17.60;99.90
4749;DHT22;2388;53.582;9.962;2023-09-19T01:42:23;17.60;99.90
4749;DHT22;2388;53.582;9.962;2023-09-19T01:47:49;17.60;99.90
4749;DHT22;2388;53.582;9.962;2023-09-19T01:50:53;17.60;99.90
4749;DHT22;2388;53.582;9.962;2023-09-19T01:53:25;17.60;99.90
4749;DHT22;2388;53.582;9.962;2023-09-19T01:55:53;17.60;99.90
4749;DHT22;2388;53.582;9.962;2023-09-19T01:58:41;17.50;99.90
4749;DHT22;2388;53.582;9.962;2023-09-19T02:01:11;17.50;99.90
4749;DHT22;2388;53.582;9.962;2023-09-19T02:03:39;17.50;99.90
4749;DHT22;2388;53.582;9.962;2023-09-19T02:06:05;17.40;99.90
4749;DHT22;2388;53.582;9.962;2023-09-19T02:08:36;17.40;99.90
4749;DHT22;2388;53.582;9.962;2023-09-19T02:11:02;17.40;99.90
4749;DHT22;2388;53.582;9.962;2023-09-19T02:13:28;17.30;99.90
4749;DHT22;2388;53.582;9.962;2023-09-19T02:15:54;17.30;99.90
4749;DHT22;2388;53.582;9.962;2023-09-19T02:18:19;17.30;99.90
4749;DHT22;2388;53.582;9.962;2023-09-19T02:20:45;17.30;99.90
4749;DHT22;2388;53.582;9.962;2023-09-19T02:23:11;17.30;99.90
4749;DHT22;2388;53.582;9.962;2023-09-19T02:25:38;17.20;99.90
4749;DHT22;2388;53.582;9.962;2023-09-19T02:28:05;17.20;99.90
4749;DHT22;2388;53.582;9.962;2023-09-19T02:30:31;17.20;99.90
4749;DHT22;2388;53.582;9.962;2023-09-19T02:32:57;17.20;99.90
4749;DHT22;2388;53.582;9.962;2023-09-19T02:35:22;17.20;99.90
4749;DHT22;2388;53.582;9.962;2023-09-19T02:37:48;17.20;99.90
4749;DHT22;2388;53.582;9.962;2023-09-19T02:40:14;17.10;99.90
4749;DHT22;2388;53.582;9.962;2023-09-19T02:42:54;17.10;99.90
4749;DHT22;2388;53.582;9.962;2023-09-19T02:45:20;17.10;99.90
4749;DHT22;2388;53.582;9.962;2023-09-19T02:47:46;17.10;99.90
4749;DHT22;2388;53.582;9.962;2023-09-19T02:50:12;17.10;99.90
4749;DHT22;2388;53.582;9.962;2023-09-19T02:52:44;17.10;99.90
4749;DHT22;2388;53.582;9.962;2023-09-19T02:55:12;17.10;99.90
4749;DHT22;2388;53.582;9.962;2023-09-19T02:57:39;17.10;99.90
4749;DHT22;2388;53.582;9.962;2023-09-19T03:00:08;17.10;99.90
4749;DHT22;2388;53.582;9.962;2023-09-19T03:02:36;17.10;99.90
4749;DHT22;2388;53.582;9.962;2023-09-19T03:05:01;17.10;99.90
4749;DHT22;2388;53.582;9.962;2023-09-19T03:07:28;17.10;99.90
4749;DHT22;2388;53.582;9.962;2023-09-19T03:09:54;17.00;99.90
4749;DHT22;2388;53.582;9.962;2023-09-19T03:12:20;17.10;99.90
4749;DHT22;2388;53.582;9.962;2023-09-19T03:14:46;17.00;99.90
4749;DHT22;2388;53.582;9.962;2023-09-19T03:17:11;17.10;99.90
4749;DHT22;2388;53.582;9.962;2023-09-19T03:19:39;17.10;99.90
4749;DHT22;2388;53.582;9.962;2023-09-19T03:22:05;17.10;99.90
4749;DHT22;2388;53.582;9.962;2023-09-19T03:24:30;17.10;99.90
4749;DHT22;2388;53.582;9.962;2023-09-19T03:26:57;17.10;99.90
4749;DHT22;2388;53.582;9.962;2023-09-19T03:29:22;17.10;99.90
4749;DHT22;2388;53.582;9.962;2023-09-19T03:31:48;17.10;99.90
4749;DHT22;2388;53.582;9.962;2023-09-19T03:34:13;17.10;99.90
4749;DHT22;2388;53.582;9.962;2023-09-19T03:36:39;17.10;99.90
4749;DHT22;2388;53.582;9.962;2023-09-19T03:39:06;17.00;99.90
4749;DHT22;2388;53.582;9.962;2023-09-19T03:41:32;17.00;99.90
4749;DHT22;2388;53.582;9.962;2023-09-19T03:43:58;17.00;99.90
4749;DHT22;2388;53.582;9.962;2023-09-19T03:46:24;16.90;99.90
4749;DHT22;2388;53.582;9.962;2023-09-19T03:48:50;16.90;99.90
4749;DHT22;2388;53.582;9.962;2023-09-19T03:51:15;16.90;99.90
4749;DHT22;2388;53.582;9.962;2023-09-19T03:53:41;16.90;99.90
4749;DHT22;2388;53.582;9.962;2023-09-19T03:56:06;16.80;99.90
4749;DHT22;2388;53.582;9.962;2023-09-19T03:58:33;16.80;99.90
4749;DHT22;2388;53.582;9.962;2023-09-19T04:01:03;16.80;99.90
4749;DHT22;2388;53.582;9.962;2023-09-19T04:03:28;16.80;99.90
4749;DHT22;2388;53.582;9.962;2023-09-19T04:06:01;16.70;99.90
4749;DHT22;2388;53.582;9.962;2023-09-19T04:08:27;16.70;99.90
4749;DHT22;2388;53.582;9.962;2023-09-19T04:10:52;16.60;99.90
4749;DHT22;2388;53.582;9.962;2023-09-19T04:13:18;16.60;99.90
4749;DHT22;2388;53.582;9.962;2023-09-19T04:15:44;16.50;99.90
4749;DHT22;2388;53.582;9.962;2023-09-19T04:18:11;16.50;99.90
4749;DHT22;2388;53.582;9.962;2023-09-19T04:20:37;16.50;99.90
4749;DHT22;2388;53.582;9.962;2023-09-19T04:23:03;16.40;99.90
4749;DHT22;2388;53.582;9.962;2023-09-19T04:25:30;16.40;99.90
4749;DHT22;2388;53.582;9.962;2023-09-19T04:27:56;16.40;99.90
4749;DHT22;2388;53.582;9.962;2023-09-19T04:30:21;16.40;99.90
4749;DHT22;2388;53.582;9.962;2023-09-19T04:32:47;16.30;99.90
4749;DHT22;2388;53.582;9.962;2023-09-19T04:35:15;16.30;99.90
4749;DHT22;2388;53.582;9.962;2023-09-19T04:37:41;16.20;99.90
4749;DHT22;2388;53.582;9.962;2023-09-19T04:40:10;16.20;99.90
4749;DHT22;2388;53.582;9.962;2023-09-19T04:42:43;16.10;99.90
4749;DHT22;2388;53.582;9.962;2023-09-19T04:45:10;16.10;99.90
4749;DHT22;2388;53.582;9.962;2023-09-19T04:47:36;16.10;99.90
4749;DHT22;2388;53.582;9.962;2023-09-19T04:50:07;16.10;99.90
4749;DHT22;2388;53.582;9.962;2023-09-19T04:52:33;16.00;99.90
4749;DHT22;2388;53.582;9.962;2023-09-19T04:54:59;16.00;99.90
4749;DHT22;2388;53.582;9.962;2023-09-19T04:57:24;16.00;99.90
4749;DHT22;2388;53.582;9.962;2023-09-19T04:59:51;15.90;99.90
4749;DHT22;2388;53.582;9.962;2023-09-19T05:02:16;15.90;99.90
4749;DHT22;2388;53.582;9.962;2023-09-19T05:04:42;15.90;99.90
4749;DHT22;2388;53.582;9.962;2023-09-19T05:07:08;15.80;99.90
4749;DHT22;2388;53.582;9.962;2023-09-19T05:09:34;15.80;99.90
4749;DHT22;2388;53.582;9.962;2023-09-19T05:12:00;15.80;99.90
4749;DHT22;2388;53.582;9.962;2023-09-19T05:14:25;15.80;99.90
4749;DHT22;2388;53.582;9.962;2023-09-19T05:16:51;15.80;99.90
4749;DHT22;2388;53.582;9.962;2023-09-19T05:19:16;15.70;99.90
4749;DHT22;2388;53.582;9.962;2023-09-19T05:21:42;15.70;99.90
4749;DHT22;2388;53.582;9.962;2023-09-19T05:24:07;15.70;99.90
4749;DHT22;2388;53.582;9.962;2023-09-19T05:26:33;15.70;99.90
4749;DHT22;2388;53.582;9.962;2023-09-19T05:28:58;15.60;99.90
4749;DHT22;2388;53.582;9.962;2023-09-19T05:31:24;15.60;99.90
4749;DHT22;2388;53.582;9.962;2023-09-19T05:33:51;15.70;99.90
4749;DHT22;2388;53.582;9.962;2023-09-19T05:36:17;15.70;99.90
4749;DHT22;2388;53.582;9.962;2023-09-19T05:38:43;15.60;99.90
4749;DHT22;2388;53.582;9.962;2023-09-19T05:41:09;15.60;99.90
4749;DHT22;2388;53.582;9.962;2023-09-19T05:43:39;15.60;99.90
4749;DHT22;2388;53.582;9.962;2023-09-19T05:46:06;15.60;99.90
4749;DHT22;2388;53.582;9.962;2023-09-19T05:48:33;15.60;99.90
4749;DHT22;2388;53.582;9.962;2023-09-19T05:50:59;15.60;99.90
4749;DHT22;2388;53.582;9.962;2023-09-19T05:53:26;15.50;99.90
4749;DHT22;2388;53.582;9.962;2023-09-19T05:55:51;15.50;99.90
4749;DHT22;2388;53.582;9.962;2023-09-19T05:58:18;15.50;99.90
4749;DHT22;2388;53.582;9.962;2023-09-19T06:00:45;15.50;99.90
4749;DHT22;2388;53.582;9.962;2023-09-19T06:03:13;15.60;99.90
4749;DHT22;2388;53.582;9.962;2023-09-19T06:05:39;15.60;99.90
4749;DHT22;2388;53.582;9.962;2023-09-19T06:08:07;15.60;99.90
4749;DHT22;2388;53.582;9.962;2023-09-19T06:10:33;15.60;99.90
4749;DHT22;2388;53.582;9.962;2023-09-19T06:13:01;15.60;99.90
4749;DHT22;2388;53.582;9.962;2023-09-19T06:15:29;15.70;99.90
4749;DHT22;2388;53.582;9.962;2023-09-19T06:17:58;15.70;99.90
4749;DHT22;2388;53.582;9.962;2023-09-19T06:20:25;15.80;99.90
4749;DHT22;2388;53.582;9.962;2023-09-19T06:22:51;15.80;99.90
4749;DHT22;2388;53.582;9.962;2023-09-19T06:25:17;15.80;99.90
4749;DHT22;2388;53.582;9.962;2023-09-19T06:27:47;15.80;99.90
4749;DHT22;2388;53.582;9.962;2023-09-19T06:30:13;15.80;99.90
4749;DHT22;2388;53.582;9.962;2023-09-19T06:32:40;15.90;99.90
4749;DHT22;2388;53.582;9.962;2023-09-19T06:35:09;15.90;99.90
4749;DHT22;2388;53.582;9.962;2023-09-19T06:37:36;15.90;99.90
4749;DHT22;2388;53.582;9.962;2023-09-19T06:40:12;15.90;99.90
4749;DHT22;2388;53.582;9.962;2023-09-19T06:42:44;15.90;99.90
4749;DHT22;2388;53.582;9.962;2023-09-19T06:45:11;16.00;99.90
4749;DHT22;2388;53.582;9.962;2023-09-19T06:47:39;16.00;99.90
4749;DHT22;2388;53.582;9.962;2023-09-19T06:50:05;16.00;99.90
4749;DHT22;2388;53.582;9.962;2023-09-19T06:52:32;16.00;99.90
4749;DHT22;2388;53.582;9.962;2023-09-19T06:54:58;16.00;99.90
4749;DHT22;2388;53.582;9.962;2023-09-19T06:57:24;16.00;99.90
4749;DHT22;2388;53.582;9.962;2023-09-19T06:59:49;16.10;99.90
4749;DHT22;2388;53.582;9.962;2023-09-19T07:02:15;16.10;99.90
4749;DHT22;2388;53.582;9.962;2023-09-19T07:04:40;16.10;99.90
4749;DHT22;2388;53.582;9.962;2023-09-19T07:07:06;16.10;99.90
4749;DHT22;2388;53.582;9.962;2023-09-19T07:09:34;16.10;99.90
4749;DHT22;2388;53.582;9.962;2023-09-19T07:12:00;16.10;99.90
4749;DHT22;2388;53.582;9.962;2023-09-19T07:14:26;16.10;99.90
4749;DHT22;2388;53.582;9.962;2023-09-19T07:16:52;16.20;99.90
4749;DHT22;2388;53.582;9.962;2023-09-19T07:19:17;16.30;99.90
4749;DHT22;2388;53.582;9.962;2023-09-19T07:21:43;16.40;99.90
4749;DHT22;2388;53.582;9.962;2023-09-19T07:24:08;16.50;99.90
4749;DHT22;2388;53.582;9.962;2023-09-19T07:26:34;16.40;99.90
4749;DHT22;2388;53.582;9.962;2023-09-19T07:29:00;16.40;99.90
4749;DHT22;2388;53.582;9.962;2023-09-19T07:31:27;16.40;99.90
4749;DHT22;2388;53.582;9.962;2023-09-19T07:33:54;16.40;99.90
4749;DHT22;2388;53.582;9.962;2023-09-19T07:36:19;16.40;99.90
4749;DHT22;2388;53.582;9.962;2023-09-19T07:38:45;16.40;99.90
4749;DHT22;2388;53.582;9.962;2023-09-19T07:41:10;16.40;99.90
4749;DHT22;2388;53.582;9.962;2023-09-19T07:43:36;16.40;99.90
4749;DHT22;2388;53.582;9.962;2023-09-19T07:46:05;16.40;99.90
4749;DHT22;2388;53.582;9.962;2023-09-19T07:48:33;16.30;99.90
4749;DHT22;2388;53.582;9.962;2023-09-19T07:51:04;16.30;99.90
4749;DHT22;2388;53.582;9.962;2023-09-19T07:53:30;16.30;99.90
4749;DHT22;2388;53.582;9.962;2023-09-19T07:56:03;16.20;99.90
4749;DHT22;2388;53.582;9.962;2023-09-19T07:58:29;16.10;99.90
4749;DHT22;2388;53.582;9.962;2023-09-19T08:00:54;16.00;99.90
4749;DHT22;2388;53.582;9.962;2023-09-19T08:03:20;15.90;99.90
4749;DHT22;2388;53.582;9.962;2023-09-19T08:05:45;15.80;99.90
4749;DHT22;2388;53.582;9.962;2023-09-19T08:08:11;15.70;99.90
4749;DHT22;2388;53.582;9.962;2023-09-19T08:10:39;15.60;99.90
4749;DHT22;2388;53.582;9.962;2023-09-19T08:13:07;15.50;99.90
4749;DHT22;2388;53.582;9.962;2023-09-19T08:15:37;15.40;99.90
4749;DHT22;2388;53.582;9.962;2023-09-19T08:18:09;15.40;99.90
4749;DHT22;2388;53.582;9.962;2023-09-19T08:20:37;15.40;99.90
4749;DHT22;2388;53.582;9.962;2023-09-19T08:23:03;15.40;99.90
4749;DHT22;2388;53.582;9.962;2023-09-19T08:25:29;15.50;99.90
4749;DHT22;2388;53.582;9.962;2023-09-19T08:27:55;15.50;99.90
4749;DHT22;2388;53.582;9.962;2023-09-19T08:30:25;15.50;99.90
4749;DHT22;2388;53.582;9.962;2023-09-19T08:32:59;15.60;99.90
4749;DHT22;2388;53.582;9.962;2023-09-19T08:35:25;15.60;99.90
4749;DHT22;2388;53.582;9.962;2023-09-19T08:37:51;15.70;99.90
4749;DHT22;2388;53.582;9.962;2023-09-19T08:40:18;15.70;99.90
4749;DHT22;2388;53.582;9.962;2023-09-19T08:42:48;15.80;99.90
4749;DHT22;2388;53.582;9.962;2023-09-19T08:45:14;15.80;99.90
4749;DHT22;2388;53.582;9.962;2023-09-19T08:47:53;15.90;99.90
4749;DHT22;2388;53.582;9.962;2023-09-19T08:50:31;15.90;99.90
4749;DHT22;2388;53.582;9.962;2023-09-19T08:53:06;15.90;99.90
4749;DHT22;2388;53.582;9.962;2023-09-19T08:55:36;16.00;99.90
4749;DHT22;2388;53.582;9.962;2023-09-19T08:58:04;16.00;99.90
4749;DHT22;2388;53.582;9.962;2023-09-19T09:00:33;16.00;99.90
4749;DHT22;2388;53.582;9.962;2023-09-19T09:03:01;16.00;99.90
4749;DHT22;2388;53.582;9.962;2023-09-19T09:05:28;16.00;99.90
4749;DHT22;2388;53.582;9.962;2023-09-19T09:07:55;16.10;99.90
4749;DHT22;2388;53.582;9.962;2023-09-19T09:10:22;16.10;99.90
4749;DHT22;2388;53.582;9.962;2023-09-19T09:12:52;16.20;99.90
4749;DHT22;2388;53.582;9.962;2023-09-19T09:15:20;16.20;99.90
4749;DHT22;2388;53.582;9.962;2023-09-19T09:17:48;16.20;99.90
4749;DHT22;2388;53.582;9.962;2023-09-19T09:20:14;16.20;99.90
4749;DHT22;2388;53.582;9.962;2023-09-19T09:22:54;16.30;99.90
4749;DHT22;2388;53.582;9.962;2023-09-19T09:25:20;16.30;99.90
4749;DHT22;2388;53.582;9.962;2023-09-19T09:27:59;16.40;99.90
4749;DHT22;2388;53.582;9.962;2023-09-19T09:30:36;16.40;99.90
4749;DHT22;2388;53.582;9.962;2023-09-19T09:33:13;16.50;99.90
4749;DHT22;2388;53.582;9.962;2023-09-19T09:38:21;16.60;99.90
4749;DHT22;2388;53.582;9.962;2023-09-19T09:40:48;16.70;99.90
4749;DHT22;2388;53.582;9.962;2023-09-19T09:43:31;16.80;99.90
4749;DHT22;2388;53.582;9.962;2023-09-19T09:46:08;16.90;99.90
4749;DHT22;2388;53.582;9.962;2023-09-19T09:51:38;17.10;99.90
4749;DHT22;2388;53.582;9.962;2023-09-19T09:54:23;17.20;99.90
4749;DHT22;2388;53.582;9.962;2023-09-19T09:59:22;17.30;99.90
4749;DHT22;2388;53.582;9.962;2023-09-19T10:01:52;17.40;99.90
4749;DHT22;2388;53.582;9.962;2023-09-19T10:04:28;17.40;99.90
4749;DHT22;2388;53.582;9.962;2023-09-19T10:06:57;17.40;99.90
4749;DHT22;2388;53.582;9.962;2023-09-19T10:09:22;17.40;99.90
4749;DHT22;2388;53.582;9.962;2023-09-19T10:12:06;17.40;99.90
4749;DHT22;2388;53.582;9.962;2023-09-19T10:14:37;17.50;99.90
4749;DHT22;2388;53.582;9.962;2023-09-19T10:17:05;17.50;99.90
4749;DHT22;2388;53.582;9.962;2023-09-19T10:19:37;17.60;99.90
4749;DHT22;2388;53.582;9.962;2023-09-19T10:22:04;17.60;99.90
4749;DHT22;2388;53.582;9.962;2023-09-19T10:24:33;17.60;99.90
4749;DHT22;2388;53.582;9.962;2023-09-19T10:27:00;17.70;99.90
4749;DHT22;2388;53.582;9.962;2023-09-19T10:29:29;17.80;99.90
4749;DHT22;2388;53.582;9.962;2023-09-19T10:31:58;17.80;99.90
4749;DHT22;2388;53.582;9.962;2023-09-19T10:34:25;17.70;99.90
4749;DHT22;2388;53.582;9.962;2023-09-19T10:36:52;17.80;99.90
4749;DHT22;2388;53.582;9.962;2023-09-19T10:39:18;17.70;99.90
4749;DHT22;2388;53.582;9.962;2023-09-19T10:41:50;17.70;99.90
4749;DHT22;2388;53.582;9.962;2023-09-19T10:44:23;17.80;99.90
4749;DHT22;2388;53.582;9.962;2023-09-19T10:46:51;17.90;99.90
4749;DHT22;2388;53.582;9.962;2023-09-19T10:49:18;17.90;99.90
4749;DHT22;2388;53.582;9.962;2023-09-19T10:51:44;18.00;99.90
4749;DHT22;2388;53.582;9.962;2023-09-19T10:54:14;18.00;99.90
4749;DHT22;2388;53.582;9.962;2023-09-19T10:56:49;18.10;99.90
4749;DHT22;2388;53.582;9.962;2023-09-19T10:59:19;18.00;99.90
4749;DHT22;2388;53.582;9.962;2023-09-19T11:01:53;18.10;99.90
4749;DHT22;2388;53.582;9.962;2023-09-19T11:04:32;18.10;99.90
4749;DHT22;2388;53.582;9.962;2023-09-19T11:07:08;18.10;99.90
4749;DHT22;2388;53.582;9.962;2023-09-19T11:09:55;18.10;99.90
4749;DHT22;2388;53.582;9.962;2023-09-19T11:14:54;18.10;99.90
4749;DHT22;2388;53.582;9.962;2023-09-19T11:30:46;18.00;99.90
4749;DHT22;2388;53.582;9.962;2023-09-19T11:33:20;18.10;99.90
4749;DHT22;2388;53.582;9.962;2023-09-19T11:43:47;18.20;99.90
4749;DHT22;2388;53.582;9.962;2023-09-19T11:46:13;18.20;99.90
4749;DHT22;2388;53.582;9.962;2023-09-19T11:48:42;18.30;99.90
4749;DHT22;2388;53.582;9.962;2023-09-19T11:51:11;18.20;99.90
4749;DHT22;2388;53.582;9.962;2023-09-19T11:53:45;18.20;99.90
4749;DHT22;2388;53.582;9.962;2023-09-19T11:56:17;18.40;99.90
4749;DHT22;2388;53.582;9.962;2023-09-19T11:58:45;18.40;99.90
4749;DHT22;2388;53.582;9.962;2023-09-19T12:01:19;18.40;99.90
4749;DHT22;2388;53.582;9.962;2023-09-19T12:03:47;18.40;99.90
4749;DHT22;2388;53.582;9.962;2023-09-19T12:06:18;18.50;99.90
4749;DHT22;2388;53.582;9.962;2023-09-19T12:08:44;18.40;99.90
4749;DHT22;2388;53.582;9.962;2023-09-19T12:11:16;18.40;99.90
4749;DHT22;2388;53.582;9.962;2023-09-19T12:13:46;18.50;99.90
4749;DHT22;2388;53.582;9.962;2023-09-19T12:16:17;18.40;99.90
4749;DHT22;2388;53.582;9.962;2023-09-19T12:18:46;18.40;99.90
4749;DHT22;2388;53.582;9.962;2023-09-19T12:21:29;18.50;99.90
4749;DHT22;2388;53.582;9.962;2023-09-19T12:26:30;18.50;99.90
4749;DHT22;2388;53.582;9.962;2023-09-19T12:28:59;18.60;99.90
4749;DHT22;2388;53.582;9.962;2023-09-19T12:31:27;18.60;99.90
4749;DHT22;2388;53.582;9.962;2023-09-19T12:33:54;18.70;99.90
4749;DHT22;2388;53.582;9.962;2023-09-19T12:36:21;18.80;99.90
4749;DHT22;2388;53.582;9.962;2023-09-19T12:38:54;18.90;99.90
4749;DHT22;2388;53.582;9.962;2023-09-19T12:41:20;19.00;99.90
4749;DHT22;2388;53.582;9.962;2023-09-19T12:43:47;18.90;99.90
4749;DHT22;2388;53.582;9.962;2023-09-19T12:46:13;18.90;99.90
4749;DHT22;2388;53.582;9.962;2023-09-19T12:48:40;18.90;99.90
4749;DHT22;2388;53.582;9.962;2023-09-19T12:51:12;19.00;99.90
4749;DHT22;2388;53.582;9.962;2023-09-19T12:53:42;19.00;99.90
4749;DHT22;2388;53.582;9.962;2023-09-19T12:56:10;19.00;99.90
4749;DHT22;2388;53.582;9.962;2023-09-19T12:58:56;19.10;99.90
4749;DHT22;2388;53.582;9.962;2023-09-19T13:01:24;19.10;99.90
4749;DHT22;2388;53.582;9.962;2023-09-19T13:04:22;19.20;99.90
4749;DHT22;2388;53.582;9.962;2023-09-19T13:06:55;19.10;99.90
4749;DHT22;2388;53.582;9.962;2023-09-19T13:09:26;19.10;99.90
4749;DHT22;2388;53.582;9.962;2023-09-19T13:11:59;19.20;99.90
4749;DHT22;2388;53.582;9.962;2023-09-19T13:14:27;19.30;99.90
4749;DHT22;2388;53.582;9.962;2023-09-19T13:16:54;19.30;99.90
4749;DHT22;2388;53.582;9.962;2023-09-19T13:19:41;19.40;99.90
4749;DHT22;2388;53.582;9.962;2023-09-19T13:22:38;19.40;99.90
4749;DHT22;2388;53.582;9.962;2023-09-19T13:25:09;19.40;99.90
4749;DHT22;2388;53.582;9.962;2023-09-19T13:27:40;19.30;99.90
4749;DHT22;2388;53.582;9.962;2023-09-19T13:30:07;19.30;99.90
4749;DHT22;2388;53.582;9.962;2023-09-19T13:32:32;19.30;99.90
4749;DHT22;2388;53.582;9.962;2023-09-19T13:34:58;19.30;99.90
4749;DHT22;2388;53.582;9.962;2023-09-19T13:37:24;19.40;99.90
4749;DHT22;2388;53.582;9.962;2023-09-19T13:39:51;19.50;99.90
4749;DHT22;2388;53.582;9.962;2023-09-19T13:42:17;19.50;99.90
4749;DHT22;2388;53.582;9.962;2023-09-19T13:44:43;19.60;99.90
4749;DHT22;2388;53.582;9.962;2023-09-19T13:47:09;19.60;99.90
4749;DHT22;2388;53.582;9.962;2023-09-19T13:49:36;19.70;99.90
4749;DHT22;2388;53.582;9.962;2023-09-19T13:52:02;19.60;99.90
4749;DHT22;2388;53.582;9.962;2023-09-19T13:54:32;19.70;99.90
4749;DHT22;2388;53.582;9.962;2023-09-19T13:56:58;19.70;99.90
4749;DHT22;2388;53.582;9.962;2023-09-19T13:59:23;19.70;99.90
4749;DHT22;2388;53.582;9.962;2023-09-19T14:01:49;19.70;99.90
4749;DHT22;2388;53.582;9.962;2023-09-19T14:04:16;19.60;99.90
4749;DHT22;2388;53.582;9.962;2023-09-19T14:06:42;19.60;99.90
4749;DHT22;2388;53.582;9.962;2023-09-19T14:09:08;19.50;99.90
4749;DHT22;2388;53.582;9.962;2023-09-19T14:11:35;19.50;99.90
4749;DHT22;2388;53.582;9.962;2023-09-19T14:14:01;19.40;99.90
4749;DHT22;2388;53.582;9.962;2023-09-19T14:16:26;19.40;99.90
4749;DHT22;2388;53.582;9.962;2023-09-19T14:18:55;19.40;99.90
4749;DHT22;2388;53.582;9.962;2023-09-19T14:21:21;19.40;99.90
4749;DHT22;2388;53.582;9.962;2023-09-19T14:23:46;19.40;99.90
4749;DHT22;2388;53.582;9.962;2023-09-19T14:26:12;19.40;99.90
4749;DHT22;2388;53.582;9.962;2023-09-19T14:28:37;19.30;99.90
4749;DHT22;2388;53.582;9.962;2023-09-19T14:31:08;19.40;99.90
4749;DHT22;2388;53.582;9.962;2023-09-19T14:33:34;19.40;99.90
4749;DHT22;2388;53.582;9.962;2023-09-19T14:36:03;19.30;99.90
4749;DHT22;2388;53.582;9.962;2023-09-19T14:38:32;19.40;99.90
4749;DHT22;2388;53.582;9.962;2023-09-19T14:41:00;19.40;99.90
4749;DHT22;2388;53.582;9.962;2023-09-19T14:43:26;19.40;99.90
4749;DHT22;2388;53.582;9.962;2023-09-19T14:45:52;19.40;99.90
4749;DHT22;2388;53.582;9.962;2023-09-19T14:48:17;19.30;99.90
4749;DHT22;2388;53.582;9.962;2023-09-19T14:50:43;19.30;99.90
4749;DHT22;2388;53.582;9.962;2023-09-19T14:53:09;19.20;99.90
4749;DHT22;2388;53.582;9.962;2023-09-19T14:55:38;19.20;99.90
4749;DHT22;2388;53.582;9.962;2023-09-19T14:58:07;19.20;99.90
4749;DHT22;2388;53.582;9.962;2023-09-19T15:00:33;19.20;99.90
4749;DHT22;2388;53.582;9.962;2023-09-19T15:02:59;19.20;99.90
4749;DHT22;2388;53.582;9.962;2023-09-19T15:05:25;19.20;99.90
4749;DHT22;2388;53.582;9.962;2023-09-19T15:07:50;19.20;99.90
4749;DHT22;2388;53.582;9.962;2023-09-19T15:10:16;19.20;99.90
4749;DHT22;2388;53.582;9.962;2023-09-19T15:12:41;19.20;99.90
4749;DHT22;2388;53.582;9.962;2023-09-19T15:15:07;19.20;99.90
4749;DHT22;2388;53.582;9.962;2023-09-19T15:17:35;19.20;99.90
4749;DHT22;2388;53.582;9.962;2023-09-19T15:20:00;19.20;99.90
4749;DHT22;2388;53.582;9.962;2023-09-19T15:22:32;19.20;99.90
4749;DHT22;2388;53.582;9.962;2023-09-19T15:24:57;19.20;99.90
4749;DHT22;2388;53.582;9.962;2023-09-19T15:27:23;19.10;99.90
4749;DHT22;2388;53.582;9.962;2023-09-19T15:29:48;19.10;99.90
4749;DHT22;2388;53.582;9.962;2023-09-19T15:32:14;19.10;99.90
4749;DHT22;2388;53.582;9.962;2023-09-19T15:34:39;19.20;99.90
4749;DHT22;2388;53.582;9.962;2023-09-19T15:37:05;19.20;99.90
4749;DHT22;2388;53.582;9.962;2023-09-19T15:39:31;19.20;99.90
4749;DHT22;2388;53.582;9.962;2023-09-19T15:41:59;19.20;99.90
4749;DHT22;2388;53.582;9.962;2023-09-19T15:44:25;19.10;99.90
4749;DHT22;2388;53.582;9.962;2023-09-19T15:46:53;19.10;99.90
4749;DHT22;2388;53.582;9.962;2023-09-19T15:49:19;19.10;99.90
4749;DHT22;2388;53.582;9.962;2023-09-19T15:51:45;19.10;99.90
4749;DHT22;2388;53.582;9.962;2023-09-19T15:54:12;19.10;99.90
4749;DHT22;2388;53.582;9.962;2023-09-19T15:56:39;19.10;99.90
4749;DHT22;2388;53.582;9.962;2023-09-19T15:59:07;19.10;99.90
4749;DHT22;2388;53.582;9.962;2023-09-19T16:01:32;19.10;99.90
4749;DHT22;2388;53.582;9.962;2023-09-19T16:03:58;19.10;99.90
4749;DHT22;2388;53.582;9.962;2023-09-19T16:06:27;19.10;99.90
4749;DHT22;2388;53.582;9.962;2023-09-19T16:08:57;19.10;99.90
4749;DHT22;2388;53.582;9.962;2023-09-19T16:11:24;19.10;99.90
4749;DHT22;2388;53.582;9.962;2023-09-19T16:13:50;19.10;99.90
4749;DHT22;2388;53.582;9.962;2023-09-19T16:16:17;19.10;99.90
4749;DHT22;2388;53.582;9.962;2023-09-19T16:18:54;19.00;99.90
4749;DHT22;2388;53.582;9.962;2023-09-19T16:21:23;19.00;99.90
4749;DHT22;2388;53.582;9.962;2023-09-19T16:23:50;19.00;99.90
4749;DHT22;2388;53.582;9.962;2023-09-19T16:26:17;19.00;99.90
4749;DHT22;2388;53.582;9.962;2023-09-19T16:28:50;19.00;99.90
4749;DHT22;2388;53.582;9.962;2023-09-19T16:31:16;19.00;99.90
4749;DHT22;2388;53.582;9.962;2023-09-19T16:33:43;19.00;99.90
4749;DHT22;2388;53.582;9.962;2023-09-19T16:36:16;19.00;99.90
4749;DHT22;2388;53.582;9.962;2023-09-19T16:38:43;19.00;99.90
4749;DHT22;2388;53.582;9.962;2023-09-19T16:41:09;19.00;99.90
4749;DHT22;2388;53.582;9.962;2023-09-19T16:43:37;19.00;99.90
4749;DHT22;2388;53.582;9.962;2023-09-19T16:46:10;19.00;99.90
4749;DHT22;2388;53.582;9.962;2023-09-19T16:48:42;19.00;99.90
4749;DHT22;2388;53.582;9.962;2023-09-19T16:51:11;19.00;99.90
4749;DHT22;2388;53.582;9.962;2023-09-19T16:53:39;19.00;99.90
4749;DHT22;2388;53.582;9.962;2023-09-19T16:56:06;19.00;99.90
4749;DHT22;2388;53.582;9.962;2023-09-19T16:58:34;19.00;99.90